Terminal Aerodrome Forecast
Issued by NWS

Home | Current Version | Previous Version | Text Only | Print | Product List | Glossary On
Versions: 1 2 3 4 5 6 7 8 9 10 11 12 13 14 15 16 17 18 19
000
FTUS46 KEKA 271135
TAFCEC
TAF
KCEC 271135Z 2712/2812 16012KT P6SM OVC100
     FM271800 15015KT P6SM -RA SCT020 OVC050
     FM280000 17012KT 3SM -RA BR OVC015
     FM280600 16015KT P6SM -RA SCT015 OVC050
     FM281000 16018KT P6SM -RA BKN015 OVC040=

USA.gov is the U.S. government's official web portal to all federal, state and local government web resources and services.